Portada
METAR-TAF:

METAR-TAF

Aeroports :

Sawyer County Airport

Hayward, Wisconsin, Estats Units d'Amèrica

latitud: 46-01-14N, longitud: 091-27-01W, altitud: 370 m

Observació

L'informe es va fer fa 13 minuts, a les 12:53 UTC
Vent 3 kt del Nord/Nord-Est
Temperatura 17°C
Humitat 82%
Pressió 1015 hPa
Visibilitat: 16.1 km
Núvols disperses a una alçada de 11000 ft

METAR: KHYR 201253Z AUTO 03003KT 10SM SCT110 17/14 A2996 RMK AO2 SLP144 T01670144

Hora: 08:06 (13:06 UTC)

Pronòstic

L'informe es va fer fa 1 hora i 33 minuts, a les 11:33 UTC
Pronòstic vàlid del 20 a les 12 UTC al 21 a les 12 UTC
Vent 6 kt del Est/Nord-Est
Visibilitat: 10 km
Cel ennuvolat a una alçada de 15000 ft

TAF: KHYR 201133Z 2012/2112 07006KT P6SM BKN150

Observacions i pronòstics meteorològics de més de 4000 aeroports (METAR i TAF).

Les estacions disponibles són els punts grocs i vermells al mapa.

Posi el ratolí al punt desitjat per veure el nom de l'estació.

Feu clic per veure les observacions i els pronòstics meteorològics.

Per canviar el mapa: feu clic els botons verds amb una creu de color negre per apropar; al botó verd amb un guió per allunyar la imatge; o en les fletxes verdes per a mapes adjacents.


METAR-TAF: